Main page
METAR-TAF:

METAR-TAF

Airports :

Cranwell, England

RAF Cranwell

latitude: 53-02N, longitude: 000-30W, elevation: 67 m

Current weather observation

The report was made 56 minutes ago, at 07:50 UTC
Wind 11 kt from the West
Temperature 15°C
Humidity 77%
Pressure 1019 hPa
Visibility 10 km or more
Few clouds at a height of 1400 ft
Broken clouds at a height of 25000 ft

METAR: EGYD 230750Z 27011KT 9999 FEW014 BKN250 15/11 Q1019 BLU NOSIG

Time: 09:46 (08:46 UTC)

Forecast

The report was made 1 hour and 3 minutes ago, at 07:43 UTC
Forecast valid from 23 at 09 UTC to 23 at 18 UTC
Wind 13 kt from the West/Northwest
Visibility 10 km or more
Few clouds at a height of 3000 ft

TAF: EGYD 230743Z 2309/2318 29013KT 9999 FEW030

Weather observations and forecasts of more than 4000 airports (METAR and TAF reports).

The available stations are represented by yellow and red dots on the map.

Hover mouse over dot to see the name of the station.

Then click to see weather observations and forecasts.

To change the map : click on the green buttons with a black cross to zoom in, on the green button with a dash to zoom out, or on the green arrows for adjacent maps.


METAR-TAF: